Time;durP1;ratioP1;P1;durP2;ratioP2;P2;SDS_P1;SDS_P2;PMS_P1;PMS_P2;Temp;Humidity;BMP_temperature;BMP_pressure;BME280_temperature;BME280_humidity;BME280_pressure;Samples;Min_cycle;Max_cycle;Signal;HPM_P1;HPM_P2
2021/06/06 00:00:37;;;;;;;2.07;1.33;;;;;;;;;;4991228;28;20185;-88
2021/06/06 00:03:45;;;;;;;1.80;1.13;;;;;;;;;;5003180;28;20186;-88
2021/06/06 00:06:50;;;;;;;2.70;1.57;;;;;;;;;;5003096;28;20221;-88
2021/06/06 00:09:54;;;;;;;1.97;1.60;;;;;;;;;;4963881;28;20198;-89
2021/06/06 00:12:59;;;;;;;1.60;1.50;;;;;;;;;;4974645;28;20206;-89
2021/06/06 00:16:04;;;;;;;2.70;1.63;;;;;;;;;;4963424;28;20219;-88
2021/06/06 00:19:10;;;;;;;1.70;1.60;;;;;;;;;;4962770;28;20181;-88
2021/06/06 00:22:14;;;;;;;2.17;1.60;;;;;;;;;;4990358;28;20640;-89
2021/06/06 00:25:19;;;;;;;2.20;1.60;;;;;;;;;;4991375;28;20193;-89
2021/06/06 00:28:23;;;;;;;4.23;1.80;;;;;;;;;;4992351;28;20224;-89
2021/06/06 00:31:27;;;;;;;2.10;1.90;;;;;;;;;;5003383;28;20193;-89
2021/06/06 00:34:32;;;;;;;2.03;1.70;;;;;;;;;;5002903;28;20221;-88
2021/06/06 00:37:36;;;;;;;3.90;1.70;;;;;;;;;;4991683;28;20217;-89
2021/06/06 00:40:43;;;;;;;3.17;1.70;;;;;;;;;;5003145;28;20205;-88
2021/06/06 00:43:49;;;;;;;3.73;1.60;;;;;;;;;;5004157;28;20182;-89
2021/06/06 00:46:54;;;;;;;3.43;1.63;;;;;;;;;;5001485;28;20217;-88
2021/06/06 00:49:58;;;;;;;2.03;1.83;;;;;;;;;;4952594;28;20209;-88
2021/06/06 00:53:08;;;;;;;1.73;1.40;;;;;;;;;;4963859;28;20187;-90
2021/06/06 00:56:17;;;;;;;1.70;1.60;;;;;;;;;;4953251;28;20215;-88
2021/06/06 00:59:24;;;;;;;1.90;1.70;;;;;;;;;;4975572;28;20179;-88
2021/06/06 01:02:28;;;;;;;4.17;1.80;;;;;;;;;;4998131;28;20189;-88
2021/06/06 01:05:41;;;;;;;2.23;1.70;;;;;;;;;;5002413;28;20189;-88
2021/06/06 01:08:48;;;;;;;3.67;1.80;;;;;;;;;;5003569;28;20549;-89
2021/06/06 01:11:55;;;;;;;2.33;1.93;;;;;;;;;;4994542;28;20197;-88
2021/06/06 01:15:10;;;;;;;2.37;2.00;;;;;;;;;;4966579;28;20209;-88
2021/06/06 01:18:25;;;;;;;1.93;1.60;;;;;;;;;;5006241;28;20711;-88
2021/06/06 01:22:01;;;;;;;1.60;1.50;;;;;;;;;;5005571;28;20189;-89
2021/06/06 01:25:13;;;;;;;2.90;1.80;;;;;;;;;;5005985;28;20189;-89
2021/06/06 01:28:41;;;;;;;3.37;1.80;;;;;;;;;;5005383;28;20696;-90
2021/06/06 01:31:53;;;;;;;2.47;1.93;;;;;;;;;;5005740;28;20185;-88
2021/06/06 01:35:04;;;;;;;1.93;1.57;;;;;;;;;;5005675;28;20209;-88
2021/06/06 01:38:17;;;;;;;1.93;1.77;;;;;;;;;;4994975;28;20221;-88
2021/06/06 01:41:28;;;;;;;1.60;1.47;;;;;;;;;;5005756;28;20541;-89
2021/06/06 01:44:36;;;;;;;3.20;1.67;;;;;;;;;;5006051;28;20664;-89
2021/06/06 01:47:44;;;;;;;2.07;1.70;;;;;;;;;;5005524;28;20225;-89
2021/06/06 01:51:03;;;;;;;2.97;1.90;;;;;;;;;;4994979;28;20185;-88
2021/06/06 01:54:14;;;;;;;3.40;2.00;;;;;;;;;;5017596;28;20182;-88
2021/06/06 01:57:21;;;;;;;2.33;1.67;;;;;;;;;;5005475;28;20213;-88
2021/06/06 02:00:36;;;;;;;2.43;1.90;;;;;;;;;;4970053;28;20191;-88
2021/06/06 02:04:03;;;;;;;1.83;1.67;;;;;;;;;;5013343;28;20193;-88
2021/06/06 02:07:38;;;;;;;2.40;1.63;;;;;;;;;;5004709;28;20210;-88
2021/06/06 02:10:56;;;;;;;2.07;1.93;;;;;;;;;;4970753;28;20186;-88
2021/06/06 02:14:08;;;;;;;2.37;2.00;;;;;;;;;;4993563;28;20189;-88
2021/06/06 02:17:30;;;;;;;3.17;1.90;;;;;;;;;;5005065;28;20218;-88
2021/06/06 02:20:49;;;;;;;2.77;2.30;;;;;;;;;;5006249;28;20186;-90
2021/06/06 02:23:54;;;;;;;2.27;2.07;;;;;;;;;;5015478;28;20193;-88
2021/06/06 02:27:13;;;;;;;3.30;2.10;;;;;;;;;;4993093;28;20225;-88
2021/06/06 02:30:24;;;;;;;3.73;2.07;;;;;;;;;;4993265;28;20186;-88
2021/06/06 02:33:42;;;;;;;2.13;1.80;;;;;;;;;;4993747;28;20182;-88
2021/06/06 02:37:05;;;;;;;3.10;2.10;;;;;;;;;;4974674;28;20699;-89
2021/06/06 02:40:34;;;;;;;3.93;2.43;;;;;;;;;;4992991;28;20534;-90
2021/06/06 02:43:45;;;;;;;3.50;2.20;;;;;;;;;;4993158;28;20628;-87
2021/06/06 02:46:51;;;;;;;3.87;2.53;;;;;;;;;;4954449;28;21886;-90
2021/06/06 02:50:05;;;;;;;2.60;2.40;;;;;;;;;;4966764;28;20187;-88
2021/06/06 02:53:28;;;;;;;2.47;2.20;;;;;;;;;;4994659;28;20194;-88
2021/06/06 02:56:37;;;;;;;2.80;2.60;;;;;;;;;;5004784;28;20225;-89
2021/06/06 02:59:57;;;;;;;3.00;2.70;;;;;;;;;;4993276;28;20186;-90
2021/06/06 03:03:07;;;;;;;3.70;3.03;;;;;;;;;;5003332;28;20201;-89
2021/06/06 03:06:18;;;;;;;4.50;2.47;;;;;;;;;;4965669;28;20179;-89
2021/06/06 03:09:25;;;;;;;3.27;2.80;;;;;;;;;;5005197;28;20186;-89
2021/06/06 03:12:37;;;;;;;5.30;2.93;;;;;;;;;;4977044;28;20190;-89
2021/06/06 03:15:46;;;;;;;3.70;3.40;;;;;;;;;;5003465;28;20213;-89
2021/06/06 03:18:56;;;;;;;5.17;3.60;;;;;;;;;;4992779;28;20217;-88
2021/06/06 03:22:03;;;;;;;4.03;3.37;;;;;;;;;;5013587;28;20174;-88
2021/06/06 03:25:59;;;;;;;5.03;3.10;;;;;;;;;;5013391;28;20189;-88
2021/06/06 03:29:10;;;;;;;3.57;3.27;;;;;;;;;;4988167;28;20205;-88
2021/06/06 03:32:20;;;;;;;6.60;3.20;;;;;;;;;;4991178;28;20181;-88
2021/06/06 03:35:26;;;;;;;3.53;3.00;;;;;;;;;;5001624;28;20209;-89
2021/06/06 03:38:31;;;;;;;4.30;3.30;;;;;;;;;;5012831;28;20217;-89
2021/06/06 03:41:36;;;;;;;3.80;3.30;;;;;;;;;;4973922;28;20644;-89
2021/06/06 03:44:44;;;;;;;4.37;3.40;;;;;;;;;;4990704;28;20189;-88
2021/06/06 03:47:48;;;;;;;5.17;2.93;;;;;;;;;;5012890;28;20213;-89
2021/06/06 03:50:53;;;;;;;3.80;2.80;;;;;;;;;;4990605;28;20190;-88
2021/06/06 03:54:01;;;;;;;2.80;2.57;;;;;;;;;;5012978;28;20225;-88
2021/06/06 03:57:07;;;;;;;3.10;2.80;;;;;;;;;;4990396;28;20696;-88
2021/06/06 04:00:20;;;;;;;3.53;2.70;;;;;;;;;;4990753;28;20190;-88
2021/06/06 04:03:32;;;;;;;2.83;2.57;;;;;;;;;;4991991;28;20624;-90
2021/06/06 04:06:37;;;;;;;3.13;2.60;;;;;;;;;;4990086;28;20186;-88
2021/06/06 04:09:43;;;;;;;6.53;2.83;;;;;;;;;;5001283;28;20189;-89
2021/06/06 04:12:47;;;;;;;3.40;2.57;;;;;;;;;;5001467;28;20182;-89
2021/06/06 04:15:52;;;;;;;4.77;2.50;;;;;;;;;;4972773;28;20213;-89
2021/06/06 04:18:57;;;;;;;2.73;2.47;;;;;;;;;;4973718;28;20203;-89
2021/06/06 04:22:02;;;;;;;2.33;2.10;;;;;;;;;;4962745;28;20638;-88
2021/06/06 04:25:11;;;;;;;3.23;2.10;;;;;;;;;;5012587;28;20198;-88
2021/06/06 04:28:20;;;;;;;4.17;2.13;;;;;;;;;;5032944;22;20232;-85
2021/06/06 04:31:27;;;;;;;3.93;2.47;;;;;;;;;;5022935;28;20180;-86
2021/06/06 04:34:34;;;;;;;2.67;2.00;;;;;;;;;;5049091;28;20183;-86
2021/06/06 04:37:38;;;;;;;2.97;2.03;;;;;;;;;;5072427;28;20227;-86
2021/06/06 04:40:47;;;;;;;4.73;1.70;;;;;;;;;;5039467;28;20184;-86
2021/06/06 04:43:51;;;;;;;3.93;2.03;;;;;;;;;;5030609;28;20655;-86
2021/06/06 04:46:56;;;;;;;2.00;1.80;;;;;;;;;;5024823;28;20177;-86
2021/06/06 04:50:00;;;;;;;3.37;1.70;;;;;;;;;;5049262;28;20195;-86
2021/06/06 04:53:06;;;;;;;2.57;1.50;;;;;;;;;;5053191;28;20183;-86
2021/06/06 04:56:13;;;;;;;1.80;1.70;;;;;;;;;;5036443;28;20212;-86
2021/06/06 04:59:18;;;;;;;3.23;1.60;;;;;;;;;;5044749;28;20674;-86
2021/06/06 05:02:23;;;;;;;2.60;1.13;;;;;;;;;;5013635;28;20205;-86
2021/06/06 05:05:34;;;;;;;1.93;1.33;;;;;;;;;;5056648;28;20546;-86
2021/06/06 05:08:40;;;;;;;1.47;1.30;;;;;;;;;;5039973;28;20220;-85
2021/06/06 05:11:45;;;;;;;2.00;1.17;;;;;;;;;;5061997;28;20192;-85
2021/06/06 05:14:51;;;;;;;1.37;1.20;;;;;;;;;;5060376;28;20200;-86
2021/06/06 05:17:56;;;;;;;3.30;1.30;;;;;;;;;;5032577;28;20232;-85
2021/06/06 05:21:03;;;;;;;2.93;0.90;;;;;;;;;;5035512;28;20204;-87
2021/06/06 05:24:08;;;;;;;1.20;1.00;;;;;;;;;;5033002;28;20196;-87
2021/06/06 05:27:12;;;;;;;2.00;1.20;;;;;;;;;;5032462;28;20196;-87
2021/06/06 05:30:24;;;;;;;1.23;0.93;;;;;;;;;;5034879;28;20181;-87
2021/06/06 05:33:28;;;;;;;1.37;1.00;;;;;;;;;;5032718;28;20180;-86
2021/06/06 05:36:32;;;;;;;2.67;1.17;;;;;;;;;;5043728;28;20204;-87
2021/06/06 05:39:36;;;;;;;2.50;1.10;;;;;;;;;;5051280;28;20184;-87
2021/06/06 05:42:41;;;;;;;7.03;1.10;;;;;;;;;;5012459;28;20189;-87
2021/06/06 05:45:49;;;;;;;2.90;0.83;;;;;;;;;;5049378;28;20192;-87
2021/06/06 05:48:53;;;;;;;1.37;0.80;;;;;;;;;;5033156;28;20220;-87
2021/06/06 05:51:57;;;;;;;1.17;0.70;;;;;;;;;;5023782;28;20180;-87
2021/06/06 05:55:06;;;;;;;0.93;0.70;;;;;;;;;;5039724;28;20188;-87
2021/06/06 05:58:12;;;;;;;2.90;0.70;;;;;;;;;;5035203;28;20219;-87
2021/06/06 06:01:18;;;;;;;1.70;0.73;;;;;;;;;;5035079;28;20185;-87
2021/06/06 06:04:22;;;;;;;1.83;0.50;;;;;;;;;;5023525;28;20181;-87
2021/06/06 06:07:27;;;;;;;1.70;0.50;;;;;;;;;;5029429;28;20184;-87
2021/06/06 06:10:31;;;;;;;1.00;0.50;;;;;;;;;;5015327;28;20181;-87
2021/06/06 06:13:36;;;;;;;0.90;0.33;;;;;;;;;;5045370;28;20184;-88
2021/06/06 06:16:43;;;;;;;1.73;0.40;;;;;;;;;;5033041;28;20208;-87
2021/06/06 06:19:47;;;;;;;1.53;0.40;;;;;;;;;;5047220;28;20191;-87
2021/06/06 06:22:51;;;;;;;0.50;0.40;;;;;;;;;;5061876;28;20187;-86
2021/06/06 06:25:55;;;;;;;0.47;0.43;;;;;;;;;;5040658;28;20204;-85
2021/06/06 06:29:00;;;;;;;0.50;0.40;;;;;;;;;;5048430;28;20219;-85
2021/06/06 06:32:22;;;;;;;0.40;0.30;;;;;;;;;;5073123;28;20192;-85
2021/06/06 06:35:27;;;;;;;0.30;0.30;;;;;;;;;;5052671;28;20179;-86
2021/06/06 06:38:33;;;;;;;1.03;0.43;;;;;;;;;;5031149;28;20224;-85
2021/06/06 06:41:37;;;;;;;0.63;0.40;;;;;;;;;;5058516;28;20183;-86
2021/06/06 06:44:41;;;;;;;1.67;0.30;;;;;;;;;;5058530;28;20188;-86
2021/06/06 06:47:49;;;;;;;1.43;0.40;;;;;;;;;;5032930;28;20215;-86
2021/06/06 06:50:55;;;;;;;0.50;0.40;;;;;;;;;;5044204;28;20199;-86
2021/06/06 06:53:59;;;;;;;0.40;0.40;;;;;;;;;;5054653;28;20196;-86
2021/06/06 06:57:04;;;;;;;0.60;0.57;;;;;;;;;;5033830;28;20208;-86
2021/06/06 07:00:13;;;;;;;0.40;0.30;;;;;;;;;;5046141;28;20172;-86
2021/06/06 07:03:24;;;;;;;0.40;0.40;;;;;;;;;;5023338;28;20181;-86
2021/06/06 07:06:28;;;;;;;0.90;0.40;;;;;;;;;;5048910;28;20188;-87
2021/06/06 07:09:32;;;;;;;0.73;0.50;;;;;;;;;;5031203;28;20211;-86
2021/06/06 07:12:38;;;;;;;1.63;0.40;;;;;;;;;;5020080;28;20200;-86
2021/06/06 07:15:43;;;;;;;0.97;0.50;;;;;;;;;;5049184;28;20183;-86
2021/06/06 07:18:49;;;;;;;1.03;0.40;;;;;;;;;;5073924;28;20207;-86
2021/06/06 07:21:53;;;;;;;0.73;0.40;;;;;;;;;;5054276;28;20188;-86
2021/06/06 07:24:57;;;;;;;0.40;0.40;;;;;;;;;;5062593;28;20201;-86
2021/06/06 07:28:03;;;;;;;1.00;0.70;;;;;;;;;;5044577;28;20223;-85
2021/06/06 07:31:07;;;;;;;0.50;0.43;;;;;;;;;;5073078;28;20539;-86
2021/06/06 07:34:13;;;;;;;0.90;0.70;;;;;;;;;;5056263;28;20196;-86
2021/06/06 07:37:17;;;;;;;0.80;0.60;;;;;;;;;;5059312;28;20215;-85
2021/06/06 07:40:25;;;;;;;0.67;0.47;;;;;;;;;;5071635;28;20195;-86
2021/06/06 07:43:29;;;;;;;2.27;0.40;;;;;;;;;;5056567;28;20187;-85
2021/06/06 07:46:35;;;;;;;0.80;0.73;;;;;;;;;;5022366;28;20184;-86
2021/06/06 07:49:39;;;;;;;3.70;0.60;;;;;;;;;;5035432;28;20191;-86
2021/06/06 07:52:43;;;;;;;0.43;0.43;;;;;;;;;;5061712;28;20527;-86
2021/06/06 07:55:53;;;;;;;13.97;9.37;;;;;;;;;;5050241;28;20195;-86
2021/06/06 07:58:58;;;;;;;7.13;4.80;;;;;;;;;;5070105;28;20211;-86
2021/06/06 08:02:02;;;;;;;7.27;6.57;;;;;;;;;;5056703;28;20187;-86
2021/06/06 08:05:09;;;;;;;1.30;1.20;;;;;;;;;;5061234;28;20658;-86
2021/06/06 08:08:14;;;;;;;1.03;0.90;;;;;;;;;;5049776;28;20211;-86
2021/06/06 08:11:18;;;;;;;1.17;0.60;;;;;;;;;;5061407;28;20176;-86
2021/06/06 08:14:23;;;;;;;0.87;0.50;;;;;;;;;;5049855;28;20176;-86
2021/06/06 08:17:27;;;;;;;1.93;0.60;;;;;;;;;;5061263;28;20211;-86
2021/06/06 08:20:36;;;;;;;0.77;0.50;;;;;;;;;;5053857;28;20179;-86
2021/06/06 08:23:42;;;;;;;3.03;0.50;;;;;;;;;;5065396;28;20626;-86
2021/06/06 08:26:46;;;;;;;0.77;0.60;;;;;;;;;;5053653;28;20183;-86
2021/06/06 08:29:50;;;;;;;3.47;0.60;;;;;;;;;;5053798;28;20168;-86
2021/06/06 08:32:54;;;;;;;0.60;0.60;;;;;;;;;;5065181;28;20180;-86
2021/06/06 08:36:13;;;;;;;0.73;0.60;;;;;;;;;;5064919;28;20179;-86
2021/06/06 08:39:22;;;;;;;0.77;0.77;;;;;;;;;;5076251;28;20207;-86
2021/06/06 08:42:31;;;;;;;0.83;0.50;;;;;;;;;;5064810;28;20175;-86
2021/06/06 08:46:00;;;;;;;1.63;0.50;;;;;;;;;;5065013;28;20171;-86
2021/06/06 08:49:05;;;;;;;0.80;0.50;;;;;;;;;;5048260;28;20219;-85
2021/06/06 08:52:35;;;;;;;0.50;0.50;;;;;;;;;;5036068;28;20188;-85
2021/06/06 08:56:17;;;;;;;1.20;0.70;;;;;;;;;;5034692;28;20184;-86
2021/06/06 08:59:28;;;;;;;0.60;0.60;;;;;;;;;;5051537;28;20208;-86
2021/06/06 09:02:46;;;;;;;0.50;0.50;;;;;;;;;;5045253;28;20195;-85
2021/06/06 09:06:20;;;;;;;2.63;0.70;;;;;;;;;;5044207;28;20173;-86
2021/06/06 09:09:33;;;;;;;1.13;0.50;;;;;;;;;;5056348;28;20207;-86
2021/06/06 09:12:38;;;;;;;0.60;0.60;;;;;;;;;;5033083;28;20181;-86
2021/06/06 09:15:42;;;;;;;1.03;0.73;;;;;;;;;;5062416;28;20203;-86
2021/06/06 09:19:06;;;;;;;0.83;0.80;;;;;;;;;;5050532;28;20231;-86
2021/06/06 09:22:11;;;;;;;1.13;1.03;;;;;;;;;;5061256;28;20192;-86
2021/06/06 09:25:28;;;;;;;5.80;1.30;;;;;;;;;;5055415;28;20180;-86
2021/06/06 09:28:44;;;;;;;1.20;1.00;;;;;;;;;;5045374;28;20227;-86
2021/06/06 09:31:49;;;;;;;1.63;1.53;;;;;;;;;;5052757;28;20189;-86
2021/06/06 09:34:58;;;;;;;2.40;2.20;;;;;;;;;;5043796;28;20176;-86
2021/06/06 09:38:18;;;;;;;1.93;1.50;;;;;;;;;;5049377;28;20235;-86
2021/06/06 09:41:26;;;;;;;2.07;1.87;;;;;;;;;;5056837;28;20192;-86
2021/06/06 09:44:32;;;;;;;1.80;1.70;;;;;;;;;;5050217;28;20673;-86
2021/06/06 09:47:37;;;;;;;1.70;1.60;;;;;;;;;;5063660;28;20211;-86
2021/06/06 09:50:48;;;;;;;3.33;1.90;;;;;;;;;;5026517;28;20205;-86
2021/06/06 09:53:58;;;;;;;2.10;1.90;;;;;;;;;;5049066;28;20192;-86
2021/06/06 09:57:20;;;;;;;2.20;1.90;;;;;;;;;;5034858;28;20552;-86
2021/06/06 10:00:50;;;;;;;2.23;1.70;;;;;;;;;;5060218;28;20195;-87
2021/06/06 10:04:05;;;;;;;4.57;2.00;;;;;;;;;;5055441;28;20196;-86
2021/06/06 10:07:23;;;;;;;2.70;2.07;;;;;;;;;;5022982;28;20195;-86
2021/06/06 10:10:36;;;;;;;3.00;1.67;;;;;;;;;;5021157;28;20192;-86
2021/06/06 10:13:45;;;;;;;2.00;1.70;;;;;;;;;;5044295;28;20192;-86
2021/06/06 10:16:50;;;;;;;2.30;2.10;;;;;;;;;;5055428;28;20189;-87
2021/06/06 10:20:31;;;;;;;2.13;1.93;;;;;;;;;;5056126;28;20188;-87
2021/06/06 10:23:40;;;;;;;2.40;2.20;;;;;;;;;;5048670;28;20199;-86
2021/06/06 10:27:00;;;;;;;2.50;2.00;;;;;;;;;;5048133;28;20196;-87
2021/06/06 10:30:23;;;;;;;3.40;2.27;;;;;;;;;;5052814;22;20571;-87
2021/06/06 10:33:34;;;;;;;2.57;2.37;;;;;;;;;;5032993;28;20180;-86
2021/06/06 10:36:40;;;;;;;2.77;2.57;;;;;;;;;;5022901;28;20185;-86
2021/06/06 10:40:00;;;;;;;2.60;2.40;;;;;;;;;;5024813;28;20220;-86
2021/06/06 10:43:38;;;;;;;2.97;2.73;;;;;;;;;;5030858;28;20196;-86
2021/06/06 10:46:48;;;;;;;2.23;1.80;;;;;;;;;;5033936;28;20520;-86
2021/06/06 10:49:59;;;;;;;2.47;2.27;;;;;;;;;;5023428;28;20216;-86
2021/06/06 10:53:13;;;;;;;2.90;2.70;;;;;;;;;;5023574;28;20185;-86
2021/06/06 10:56:50;;;;;;;2.37;2.00;;;;;;;;;;5043315;28;20193;-86
2021/06/06 11:00:09;;;;;;;2.30;1.97;;;;;;;;;;5024155;28;20702;-87
2021/06/06 11:03:13;;;;;;;1.67;1.40;;;;;;;;;;5033636;28;20521;-87
2021/06/06 11:06:30;;;;;;;2.37;1.70;;;;;;;;;;5035752;28;20200;-87
2021/06/06 11:09:37;;;;;;;1.60;1.50;;;;;;;;;;5025560;28;20216;-87
2021/06/06 11:12:42;;;;;;;1.60;1.50;;;;;;;;;;5038598;28;20199;-87
2021/06/06 11:16:19;;;;;;;1.73;1.40;;;;;;;;;;5051315;28;20184;-87
2021/06/06 11:19:33;;;;;;;2.53;2.00;;;;;;;;;;5039747;28;20220;-86
2021/06/06 11:22:39;;;;;;;1.90;1.70;;;;;;;;;;5052155;28;20188;-87
2021/06/06 11:25:49;;;;;;;2.20;2.00;;;;;;;;;;5041868;28;20185;-87
2021/06/06 11:29:21;;;;;;;3.97;2.83;;;;;;;;;;5040601;28;20702;-86
2021/06/06 11:32:41;;;;;;;2.70;2.50;;;;;;;;;;5029964;28;20180;-87
2021/06/06 11:35:49;;;;;;;5.23;1.77;;;;;;;;;;5044344;28;20185;-87
2021/06/06 11:38:53;;;;;;;10.80;7.47;;;;;;;;;;5010194;28;20232;-87
2021/06/06 11:41:59;;;;;;;18.20;11.57;;;;;;;;;;5027208;28;20192;-87
2021/06/06 11:45:22;;;;;;;64.17;30.07;;;;;;;;;;5041480;28;20654;-87
2021/06/06 11:48:32;;;;;;;30.53;14.70;;;;;;;;;;5029133;28;20195;-86
2021/06/06 11:51:40;;;;;;;2.50;2.17;;;;;;;;;;5032902;28;20189;-86
2021/06/06 11:54:52;;;;;;;1.60;1.40;;;;;;;;;;5032922;28;20173;-87
2021/06/06 11:58:08;;;;;;;3.43;1.40;;;;;;;;;;5009979;28;20189;-87
2021/06/06 12:01:22;;;;;;;2.17;1.50;;;;;;;;;;5032834;28;20189;-87
2021/06/06 12:04:33;;;;;;;1.30;1.20;;;;;;;;;;5016547;28;20639;-87
2021/06/06 12:07:44;;;;;;;1.73;1.40;;;;;;;;;;5031623;28;20193;-87
2021/06/06 12:10:56;;;;;;;1.73;1.37;;;;;;;;;;5028514;28;20652;-87
2021/06/06 12:14:25;;;;;;;2.27;1.67;;;;;;;;;;5021675;28;20188;-87
2021/06/06 12:17:29;;;;;;;2.50;1.47;;;;;;;;;;5049396;28;20536;-87
2021/06/06 12:20:49;;;;;;;2.77;1.40;;;;;;;;;;5022198;28;20559;-89
2021/06/06 12:24:24;;;;;;;2.40;1.20;;;;;;;;;;5021652;28;20181;-87
2021/06/06 12:27:30;;;;;;;2.63;1.60;;;;;;;;;;5048836;28;20192;-87
2021/06/06 12:30:54;;;;;;;1.60;1.37;;;;;;;;;;5032726;28;20212;-86
2021/06/06 12:34:15;;;;;;;1.70;1.33;;;;;;;;;;5021307;28;20185;-86
2021/06/06 12:37:30;;;;;;;1.93;1.10;;;;;;;;;;5044837;28;20192;-86
2021/06/06 12:40:37;;;;;;;1.27;1.17;;;;;;;;;;5052131;28;20216;-87
2021/06/06 12:43:48;;;;;;;2.50;1.30;;;;;;;;;;5033251;28;20635;-87
2021/06/06 12:47:00;;;;;;;2.93;1.20;;;;;;;;;;5016335;28;20544;-86
2021/06/06 12:50:18;;;;;;;2.50;1.30;;;;;;;;;;5021604;28;20255;-86
2021/06/06 12:53:33;;;;;;;3.50;1.30;;;;;;;;;;5022470;28;20197;-86
2021/06/06 12:56:38;;;;;;;1.40;1.30;;;;;;;;;;5024839;28;20200;-87
2021/06/06 12:59:43;;;;;;;1.57;1.37;;;;;;;;;;5045529;28;20575;-87
2021/06/06 13:02:48;;;;;;;2.07;1.67;;;;;;;;;;5034509;28;20193;-86
2021/06/06 13:05:55;;;;;;;1.23;1.13;;;;;;;;;;5024272;28;20196;-86
2021/06/06 13:09:15;;;;;;;1.50;1.17;;;;;;;;;;5025865;28;20209;-87
2021/06/06 13:12:33;;;;;;;1.57;1.20;;;;;;;;;;5039752;28;20188;-86
2021/06/06 13:15:42;;;;;;;2.77;1.40;;;;;;;;;;5029682;28;20193;-87
2021/06/06 13:19:05;;;;;;;3.50;1.13;;;;;;;;;;5055095;28;20227;-86
2021/06/06 13:22:14;;;;;;;2.10;1.00;;;;;;;;;;5026237;28;20540;-87
2021/06/06 13:25:25;;;;;;;2.07;1.20;;;;;;;;;;5030630;28;20192;-87
2021/06/06 13:28:38;;;;;;;3.80;1.47;;;;;;;;;;5052243;28;20208;-87
2021/06/06 13:32:11;;;;;;;1.20;1.10;;;;;;;;;;5023943;28;20192;-86
2021/06/06 13:35:15;;;;;;;1.37;1.23;;;;;;;;;;5043772;28;20184;-86
2021/06/06 13:38:20;;;;;;;1.50;1.40;;;;;;;;;;5054149;28;20192;-86
2021/06/06 13:41:25;;;;;;;1.57;1.07;;;;;;;;;;5034774;28;20192;-86
2021/06/06 13:44:29;;;;;;;2.77;1.63;;;;;;;;;;5023528;28;20181;-86
2021/06/06 13:47:34;;;;;;;2.10;1.10;;;;;;;;;;5034174;28;20189;-86
2021/06/06 13:50:40;;;;;;;1.20;1.10;;;;;;;;;;5025601;28;20216;-86
2021/06/06 13:53:44;;;;;;;1.30;1.20;;;;;;;;;;5042904;28;20192;-86
2021/06/06 13:56:50;;;;;;;1.30;1.20;;;;;;;;;;5044501;28;20204;-87
2021/06/06 13:59:54;;;;;;;1.50;1.30;;;;;;;;;;5021566;28;20224;-86
2021/06/06 14:03:02;;;;;;;1.67;1.40;;;;;;;;;;5023405;28;20640;-86
2021/06/06 14:06:09;;;;;;;3.10;1.20;;;;;;;;;;5034934;28;20189;-86
2021/06/06 14:09:17;;;;;;;2.00;1.20;;;;;;;;;;5019598;28;20215;-86
2021/06/06 14:12:22;;;;;;;2.80;1.30;;;;;;;;;;5031450;28;20531;-86
2021/06/06 14:15:26;;;;;;;1.50;1.40;;;;;;;;;;5023539;28;20184;-86
2021/06/06 14:18:30;;;;;;;1.60;1.33;;;;;;;;;;5040679;28;20188;-86
2021/06/06 14:21:35;;;;;;;2.13;1.03;;;;;;;;;;5023123;28;20177;-86
2021/06/06 14:24:39;;;;;;;1.63;1.10;;;;;;;;;;5034084;28;20185;-86
2021/06/06 14:27:44;;;;;;;1.30;1.20;;;;;;;;;;5011464;28;20200;-86
2021/06/06 14:30:49;;;;;;;3.10;1.20;;;;;;;;;;5014482;28;20181;-86
2021/06/06 14:33:55;;;;;;;1.50;1.10;;;;;;;;;;5023148;28;20532;-86
2021/06/06 14:37:00;;;;;;;1.20;1.10;;;;;;;;;;5023184;28;20193;-86
2021/06/06 14:40:06;;;;;;;1.80;0.93;;;;;;;;;;5011514;28;20228;-86
2021/06/06 14:43:13;;;;;;;1.30;1.20;;;;;;;;;;5053898;28;20210;-87
2021/06/06 14:46:20;;;;;;;1.10;1.00;;;;;;;;;;5028740;28;20184;-87
2021/06/06 14:49:24;;;;;;;2.90;1.30;;;;;;;;;;5031234;28;20208;-87
2021/06/06 14:52:28;;;;;;;1.30;1.20;;;;;;;;;;5053893;28;20188;-87
2021/06/06 14:55:34;;;;;;;3.10;1.10;;;;;;;;;;5023471;28;21449;-87
2021/06/06 14:58:40;;;;;;;1.83;1.10;;;;;;;;;;5012406;28;20221;-87
2021/06/06 15:01:44;;;;;;;3.83;1.90;;;;;;;;;;5012353;28;20543;-87
2021/06/06 15:04:48;;;;;;;1.63;1.30;;;;;;;;;;5026364;28;20196;-86
2021/06/06 15:07:54;;;;;;;1.27;1.17;;;;;;;;;;5023738;28;20197;-87
2021/06/06 15:10:59;;;;;;;2.60;0.83;;;;;;;;;;5011826;28;20177;-82
2021/06/06 15:14:04;;;;;;;2.13;0.80;;;;;;;;;;5033848;28;20189;-83
2021/06/06 15:17:08;;;;;;;1.50;0.93;;;;;;;;;;5024024;28;20185;-83
2021/06/06 15:20:15;;;;;;;0.80;0.70;;;;;;;;;;5023650;28;20224;-83
2021/06/06 15:23:21;;;;;;;1.33;0.90;;;;;;;;;;5014410;28;20199;-83
2021/06/06 15:26:27;;;;;;;0.80;0.80;;;;;;;;;;5043073;28;20181;-83
2021/06/06 15:29:32;;;;;;;2.53;0.83;;;;;;;;;;5033134;28;21135;-84
2021/06/06 15:32:36;;;;;;;2.40;0.83;;;;;;;;;;5038442;28;20194;-84
2021/06/06 15:35:44;;;;;;;1.30;1.00;;;;;;;;;;5023165;28;20181;-83
2021/06/06 15:38:48;;;;;;;1.37;0.77;;;;;;;;;;5011093;28;20216;-83
2021/06/06 15:41:52;;;;;;;1.07;0.83;;;;;;;;;;5015086;28;20195;-83
2021/06/06 15:44:56;;;;;;;1.07;0.83;;;;;;;;;;5040448;28;20188;-82
2021/06/06 15:48:00;;;;;;;2.07;1.20;;;;;;;;;;5031431;28;20200;-82
2021/06/06 15:51:07;;;;;;;1.00;0.90;;;;;;;;;;5034662;28;20175;-83
2021/06/06 15:54:14;;;;;;;2.20;0.90;;;;;;;;;;5047007;28;20193;-83
2021/06/06 15:57:19;;;;;;;1.47;1.10;;;;;;;;;;5015601;28;20194;-82
2021/06/06 16:00:26;;;;;;;1.60;1.20;;;;;;;;;;5034496;28;20228;-82
2021/06/06 16:03:33;;;;;;;1.30;1.20;;;;;;;;;;5020384;28;20183;-82
2021/06/06 16:06:38;;;;;;;1.80;1.07;;;;;;;;;;5011697;28;20201;-82
2021/06/06 16:09:42;;;;;;;1.00;0.90;;;;;;;;;;5043226;28;20216;-82
2021/06/06 16:12:46;;;;;;;3.80;1.30;;;;;;;;;;5035946;28;20188;-82
2021/06/06 16:15:51;;;;;;;1.17;0.90;;;;;;;;;;5036219;28;20200;-82
2021/06/06 16:18:56;;;;;;;1.00;0.90;;;;;;;;;;5024137;28;20216;-82
2021/06/06 16:22:00;;;;;;;1.43;1.10;;;;;;;;;;5034347;28;20176;-82
2021/06/06 16:25:05;;;;;;;2.70;1.00;;;;;;;;;;5028899;28;20536;-82
2021/06/06 16:28:09;;;;;;;1.10;1.00;;;;;;;;;;5034435;28;20208;-82
2021/06/06 16:31:16;;;;;;;1.90;1.20;;;;;;;;;;5057927;22;20571;-83
2021/06/06 16:34:20;;;;;;;1.30;1.20;;;;;;;;;;5043892;28;20196;-84
2021/06/06 16:37:25;;;;;;;1.43;1.30;;;;;;;;;;5044201;28;20172;-83
2021/06/06 16:40:29;;;;;;;3.10;1.20;;;;;;;;;;5050212;28;20231;-83
2021/06/06 16:43:33;;;;;;;1.43;1.30;;;;;;;;;;5059134;28;20180;-83
2021/06/06 16:46:37;;;;;;;1.13;1.03;;;;;;;;;;5048642;28;20504;-83
2021/06/06 16:49:42;;;;;;;2.00;1.10;;;;;;;;;;5037663;28;20176;-83
2021/06/06 16:52:46;;;;;;;1.17;1.07;;;;;;;;;;5048286;28;20180;-84
2021/06/06 16:55:57;;;;;;;1.57;1.10;;;;;;;;;;5050089;28;20195;-83
2021/06/06 16:59:01;;;;;;;1.50;1.30;;;;;;;;;;5048402;28;20185;-83
2021/06/06 17:02:05;;;;;;;2.50;1.03;;;;;;;;;;5072567;28;20303;-84
2021/06/06 17:05:11;;;;;;;3.67;1.40;;;;;;;;;;5052199;28;20192;-83
2021/06/06 17:08:15;;;;;;;1.40;1.30;;;;;;;;;;5059295;28;20196;-84
2021/06/06 17:11:22;;;;;;;3.30;1.30;;;;;;;;;;5042102;28;20206;-83
2021/06/06 17:14:28;;;;;;;2.13;1.13;;;;;;;;;;5044969;28;20188;-83
2021/06/06 17:17:32;;;;;;;2.77;1.13;;;;;;;;;;5047773;28;20176;-83
2021/06/06 17:20:38;;;;;;;4.07;1.30;;;;;;;;;;5048968;28;20232;-84
2021/06/06 17:23:45;;;;;;;1.57;1.37;;;;;;;;;;5054657;28;20188;-83
2021/06/06 17:26:49;;;;;;;2.43;1.20;;;;;;;;;;5044088;28;20195;-83
2021/06/06 17:29:54;;;;;;;2.10;1.40;;;;;;;;;;5045699;28;20180;-84
2021/06/06 17:33:01;;;;;;;1.63;1.50;;;;;;;;;;5077848;28;20641;-84
2021/06/06 17:36:05;;;;;;;2.23;1.30;;;;;;;;;;5035697;28;20527;-83
2021/06/06 17:39:13;;;;;;;1.70;1.40;;;;;;;;;;5051728;28;20195;-83
2021/06/06 17:42:17;;;;;;;2.70;1.30;;;;;;;;;;5066255;28;20546;-83
2021/06/06 17:45:22;;;;;;;1.70;1.60;;;;;;;;;;5066562;28;20199;-83
2021/06/06 17:48:27;;;;;;;3.30;1.47;;;;;;;;;;5066899;28;20558;-83
2021/06/06 17:51:31;;;;;;;4.00;1.53;;;;;;;;;;5053566;28;20211;-82
2021/06/06 17:54:36;;;;;;;2.37;1.30;;;;;;;;;;5067034;28;20171;-84
2021/06/06 17:57:40;;;;;;;1.40;1.30;;;;;;;;;;5071651;28;20203;-84
2021/06/06 18:00:45;;;;;;;1.73;1.40;;;;;;;;;;5060350;28;20223;-84
2021/06/06 18:03:50;;;;;;;1.73;1.60;;;;;;;;;;5072698;28;20192;-84
2021/06/06 18:06:54;;;;;;;1.57;1.20;;;;;;;;;;5041271;28;20953;-84
2021/06/06 18:09:59;;;;;;;1.57;1.47;;;;;;;;;;5041258;28;20191;-84
2021/06/06 18:13:05;;;;;;;1.30;1.20;;;;;;;;;;5047484;28;20618;-84
2021/06/06 18:16:10;;;;;;;1.73;1.30;;;;;;;;;;5061085;28;20183;-84
2021/06/06 18:19:17;;;;;;;1.63;1.40;;;;;;;;;;5048301;28;20184;-84
2021/06/06 18:22:22;;;;;;;2.27;1.40;;;;;;;;;;5058608;28;20211;-83
2021/06/06 18:25:30;;;;;;;1.60;1.43;;;;;;;;;;5071607;28;20195;-85
2021/06/06 18:28:34;;;;;;;2.93;1.47;;;;;;;;;;5066906;28;20184;-83
2021/06/06 18:31:40;;;;;;;1.77;1.47;;;;;;;;;;5041158;28;20219;-83
2021/06/06 18:34:45;;;;;;;3.93;1.37;;;;;;;;;;5052704;28;20192;-83
2021/06/06 18:37:49;;;;;;;1.93;1.30;;;;;;;;;;5051924;28;20539;-82
2021/06/06 18:40:54;;;;;;;4.83;1.40;;;;;;;;;;5045104;28;20223;-82
2021/06/06 18:43:59;;;;;;;2.27;1.33;;;;;;;;;;5072451;28;20203;-83
2021/06/06 18:47:06;;;;;;;1.73;1.63;;;;;;;;;;5068059;28;20187;-83
2021/06/06 18:50:15;;;;;;;1.73;1.20;;;;;;;;;;5065563;28;20676;-83
2021/06/06 18:53:25;;;;;;;2.63;1.50;;;;;;;;;;5047815;28;20187;-83